createdAt,value
2017-05-13T00:00:58.248Z,8.7
2017-05-13T00:02:16.884Z,8.6
2017-05-13T00:03:35.515Z,8.5
2017-05-13T00:04:54.145Z,8.5
2017-05-13T00:06:12.789Z,8.4
2017-05-13T00:07:31.470Z,8.3
2017-05-13T00:08:50.118Z,8.2
2017-05-13T00:10:08.771Z,8.2
2017-05-13T00:11:27.407Z,8.1
2017-05-13T00:12:46.055Z,8.1
2017-05-13T00:14:04.799Z,8
2017-05-13T00:15:23.455Z,8
2017-05-13T00:16:42.090Z,8
2017-05-13T00:18:00.753Z,8
2017-05-13T00:19:19.435Z,7.9
2017-05-13T00:20:38.124Z,7.9
2017-05-13T00:21:56.788Z,7.9
2017-05-13T00:23:15.435Z,7.8
2017-05-13T00:24:34.065Z,7.8
2017-05-13T00:25:52.732Z,7.8
2017-05-13T00:27:11.383Z,7.7
2017-05-13T00:28:30.016Z,7.7
2017-05-13T00:29:48.675Z,7.7
2017-05-13T00:31:07.330Z,7.6
2017-05-13T00:32:25.968Z,7.6
2017-05-13T00:33:44.655Z,7.6
2017-05-13T00:35:03.290Z,7.6
2017-05-13T00:36:21.953Z,7.6
2017-05-13T00:37:40.584Z,7.6
2017-05-13T00:38:59.217Z,7.6
2017-05-13T00:40:17.887Z,7.5
2017-05-13T00:41:36.522Z,7.5
2017-05-13T00:42:55.161Z,7.5
2017-05-13T00:44:13.850Z,7.5
2017-05-13T00:45:32.507Z,7.5
2017-05-13T00:46:51.140Z,7.5
2017-05-13T00:48:09.818Z,7.5
2017-05-13T00:49:28.451Z,7.4
2017-05-13T00:50:47.087Z,7.4
2017-05-13T00:52:05.715Z,7.4
2017-05-13T00:53:24.375Z,7.4
2017-05-13T00:54:43.051Z,7.4
2017-05-13T00:56:01.742Z,7.4
2017-05-13T00:57:20.420Z,7.5
2017-05-13T00:58:39.059Z,7.6
2017-05-13T00:59:57.722Z,7.6
2017-05-13T01:01:16.374Z,7.6
2017-05-13T01:02:35.013Z,7.7
2017-05-13T01:03:53.649Z,7.8
2017-05-13T01:05:12.335Z,7.8
2017-05-13T01:06:30.963Z,7.8
2017-05-13T01:07:49.624Z,7.8
2017-05-13T01:09:08.260Z,7.7
2017-05-13T01:10:26.899Z,7.6
2017-05-13T01:11:45.547Z,7.6
2017-05-13T01:13:04.232Z,7.6
2017-05-13T01:14:22.939Z,7.6
2017-05-13T01:15:41.571Z,7.5
2017-05-13T01:17:00.215Z,7.5
2017-05-13T01:18:18.853Z,7.4
2017-05-13T01:19:37.486Z,7.4
2017-05-13T01:20:56.123Z,7.4
2017-05-13T01:22:14.789Z,7.4
2017-05-13T01:23:33.423Z,7.5
2017-05-13T01:24:52.064Z,7.6
2017-05-13T01:26:10.704Z,7.6
2017-05-13T01:27:29.357Z,7.6
2017-05-13T01:28:47.994Z,7.6
2017-05-13T01:30:06.631Z,7.6
2017-05-13T01:31:25.306Z,7.5
2017-05-13T01:32:43.963Z,7.5
2017-05-13T01:34:02.613Z,7.4
2017-05-13T01:35:21.248Z,7.3
2017-05-13T01:36:39.884Z,7.3
2017-05-13T01:37:58.516Z,7.3
2017-05-13T01:39:17.151Z,7.3
2017-05-13T01:40:35.803Z,7.3
2017-05-13T01:41:54.464Z,7.4
2017-05-13T01:43:13.138Z,7.5
2017-05-13T01:44:31.769Z,7.6
2017-05-13T01:45:50.405Z,7.6
2017-05-13T01:47:09.032Z,7.6
2017-05-13T01:48:27.711Z,7.6
2017-05-13T01:49:46.345Z,7.7
2017-05-13T01:51:05.000Z,7.7
2017-05-13T01:52:23.685Z,7.8
2017-05-13T01:53:42.366Z,7.8
2017-05-13T01:55:01.001Z,7.9
2017-05-13T01:56:19.673Z,7.9
2017-05-13T01:57:38.308Z,8
2017-05-13T01:58:56.949Z,8
2017-05-13T02:00:15.591Z,7.9
2017-05-13T02:01:34.297Z,8
2017-05-13T02:02:52.931Z,7.9
2017-05-13T02:04:11.599Z,7.9
2017-05-13T02:05:30.234Z,7.8
2017-05-13T02:06:48.865Z,7.8
2017-05-13T02:08:07.511Z,7.7
2017-05-13T02:09:26.152Z,7.7
2017-05-13T02:10:44.784Z,7.6
2017-05-13T02:12:03.423Z,7.5
2017-05-13T02:13:22.099Z,7.4
2017-05-13T02:14:40.770Z,7.4
2017-05-13T02:15:59.420Z,7.4
2017-05-13T02:17:18.058Z,7.3
2017-05-13T02:18:36.721Z,7.3
2017-05-13T02:19:55.376Z,7.3
2017-05-13T02:21:14.025Z,7.3
2017-05-13T02:22:32.712Z,7.3
2017-05-13T02:23:51.343Z,7.5
2017-05-13T02:25:10.036Z,7.6
2017-05-13T02:26:28.666Z,7.6
2017-05-13T02:27:47.302Z,7.6
2017-05-13T02:29:05.934Z,7.8
2017-05-13T02:30:24.569Z,7.9
2017-05-13T02:31:43.259Z,7.9
2017-05-13T02:33:01.900Z,7.8
2017-05-13T02:34:20.537Z,7.7
2017-05-13T02:35:39.222Z,7.6
2017-05-13T02:36:57.876Z,7.5
2017-05-13T02:38:16.521Z,7.4
2017-05-13T02:39:35.161Z,7.4
2017-05-13T02:40:53.835Z,7.3
2017-05-13T02:42:12.499Z,7.3
2017-05-13T02:43:31.189Z,7.3
2017-05-13T02:44:49.860Z,7.3
2017-05-13T02:46:08.494Z,7.3
2017-05-13T02:47:27.165Z,7.3
2017-05-13T02:48:45.800Z,7.3
2017-05-13T02:50:04.431Z,7.3
2017-05-13T02:51:23.097Z,7.3
2017-05-13T02:52:41.729Z,7.3
2017-05-13T02:54:00.363Z,7.4
2017-05-13T02:55:19.027Z,7.3
2017-05-13T02:56:37.662Z,7.3
2017-05-13T02:57:56.299Z,7.3
2017-05-13T02:59:14.988Z,7.2
2017-05-13T03:00:33.669Z,7.2
2017-05-13T03:01:52.304Z,7.2
2017-05-13T03:03:10.973Z,7.2
2017-05-13T03:04:29.606Z,7.2
2017-05-13T03:05:48.241Z,7.2
2017-05-13T03:07:06.896Z,7.2
2017-05-13T03:08:25.557Z,7.3
2017-05-13T03:09:44.198Z,7.3
2017-05-13T03:11:02.838Z,7.4
2017-05-13T03:12:21.471Z,7.4
2017-05-13T03:13:40.109Z,7.5
2017-05-13T03:14:58.737Z,7.5
2017-05-13T03:16:17.436Z,7.5
2017-05-13T03:17:36.069Z,7.4
2017-05-13T03:18:54.708Z,7.3
2017-05-13T03:20:13.361Z,7.3
2017-05-13T03:21:32.015Z,7.3
2017-05-13T03:22:50.709Z,7.3
2017-05-13T03:24:09.353Z,7.2
2017-05-13T03:25:28.001Z,7.2
2017-05-13T03:26:46.638Z,7.2
2017-05-13T03:28:05.307Z,7.2
2017-05-13T03:29:24.014Z,7.2
2017-05-13T03:30:42.645Z,7.2
2017-05-13T03:32:01.283Z,7.2
2017-05-13T03:33:19.912Z,7.3
2017-05-13T03:34:38.566Z,7.3
2017-05-13T03:35:57.256Z,7.3
2017-05-13T03:37:15.948Z,7.3
2017-05-13T03:38:34.591Z,7.3
2017-05-13T03:39:53.234Z,7.3
2017-05-13T03:41:11.902Z,7.4
2017-05-13T03:42:30.548Z,7.3
2017-05-13T03:43:49.206Z,7.3
2017-05-13T03:45:07.882Z,7.3
2017-05-13T03:46:26.520Z,7.3
2017-05-13T03:47:45.157Z,7.3
2017-05-13T03:49:03.861Z,7.3
2017-05-13T03:50:22.554Z,7.3
2017-05-13T03:51:41.182Z,7.3
2017-05-13T03:52:59.829Z,7.4
2017-05-13T03:54:18.486Z,7.4
2017-05-13T03:55:37.174Z,7.5
2017-05-13T03:56:55.811Z,7.6
2017-05-13T03:58:14.443Z,7.6
2017-05-13T03:59:33.087Z,7.6
2017-05-13T04:00:51.772Z,7.6
2017-05-13T04:02:10.413Z,7.6
2017-05-13T04:03:29.042Z,7.6
2017-05-13T04:04:47.682Z,7.6
2017-05-13T04:06:06.371Z,7.6
2017-05-13T04:07:25.005Z,7.6
2017-05-13T04:08:43.655Z,7.6
2017-05-13T04:10:02.351Z,7.5
2017-05-13T04:11:20.986Z,7.6
2017-05-13T04:12:39.618Z,7.5
2017-05-13T04:13:58.249Z,7.6
2017-05-13T04:15:16.892Z,7.6
2017-05-13T04:16:35.523Z,7.6
2017-05-13T04:17:54.156Z,7.6
2017-05-13T04:19:12.822Z,7.6
2017-05-13T04:20:31.456Z,7.7
2017-05-13T04:21:50.094Z,7.8
2017-05-13T04:23:08.757Z,7.8
2017-05-13T04:24:27.437Z,7.9
2017-05-13T04:25:46.107Z,8
2017-05-13T04:27:04.741Z,8
2017-05-13T04:28:23.420Z,7.9
2017-05-13T04:29:42.125Z,8
2017-05-13T04:31:00.782Z,8.1
2017-05-13T04:32:19.462Z,8.2
2017-05-13T04:33:38.093Z,8.3
2017-05-13T04:34:56.724Z,8.4
2017-05-13T04:36:15.354Z,8.5
2017-05-13T04:37:34.029Z,8.5
2017-05-13T04:38:52.676Z,8.6
2017-05-13T04:40:11.313Z,8.7
2017-05-13T04:41:30.019Z,8.7
2017-05-13T04:42:48.681Z,8.8
2017-05-13T04:44:07.367Z,8.9
2017-05-13T04:45:26.038Z,8.9
2017-05-13T04:46:44.672Z,8.9
2017-05-13T04:48:03.305Z,8.9
2017-05-13T04:49:21.995Z,8.9
2017-05-13T04:50:40.628Z,8.9
2017-05-13T04:51:59.262Z,8.9
2017-05-13T04:53:17.900Z,8.9
2017-05-13T04:54:36.537Z,9
2017-05-13T04:55:55.171Z,9.1
2017-05-13T04:57:13.806Z,9.1
2017-05-13T04:58:32.445Z,9.2
2017-05-13T04:59:51.105Z,9.3
2017-05-13T05:01:09.795Z,9.3
2017-05-13T05:02:28.452Z,9.4
2017-05-13T05:03:47.082Z,9.5
2017-05-13T05:05:05.754Z,9.6
2017-05-13T05:06:24.391Z,9.7
2017-05-13T05:07:43.039Z,9.8
2017-05-13T05:09:01.678Z,9.8
2017-05-13T05:10:20.316Z,9.9
2017-05-13T05:11:38.958Z,9.9
2017-05-13T05:12:57.695Z,10
2017-05-13T05:14:16.347Z,10.1
2017-05-13T05:15:35.001Z,10.1
2017-05-13T05:16:53.715Z,10.2
2017-05-13T05:18:12.366Z,10.2
2017-05-13T05:19:31.021Z,10.3
2017-05-13T05:20:49.670Z,10.4
2017-05-13T05:22:08.324Z,10.5
2017-05-13T05:23:26.976Z,10.7
2017-05-13T05:24:45.621Z,10.8
2017-05-13T05:26:04.275Z,10.9
2017-05-13T05:27:22.966Z,10.9
2017-05-13T05:28:41.709Z,11
2017-05-13T05:30:00.364Z,11
2017-05-13T05:31:19.012Z,11.2
2017-05-13T05:32:37.700Z,11.3
2017-05-13T05:33:56.350Z,11.4
2017-05-13T05:35:15.002Z,11.5
2017-05-13T05:36:33.653Z,11.6
2017-05-13T05:37:52.308Z,11.6
2017-05-13T05:39:10.962Z,11.6
2017-05-13T05:40:29.618Z,11.7
2017-05-13T05:41:48.305Z,11.7
2017-05-13T05:43:06.955Z,11.8
2017-05-13T05:44:25.622Z,11.9
2017-05-13T05:45:44.265Z,11.9
2017-05-13T05:47:02.917Z,12
2017-05-13T05:48:21.627Z,12
2017-05-13T05:49:40.278Z,12.2
2017-05-13T05:50:58.928Z,12.3
2017-05-13T05:52:17.579Z,12.4
2017-05-13T05:53:36.242Z,12.5
2017-05-13T05:54:54.929Z,12.6
2017-05-13T05:56:13.589Z,12.8
2017-05-13T05:57:32.287Z,13.1
2017-05-13T05:58:50.941Z,13.3
2017-05-13T06:00:09.622Z,13.5
2017-05-13T06:01:28.302Z,13.6
2017-05-13T06:02:46.994Z,13.7
2017-05-13T06:04:05.692Z,13.8
2017-05-13T06:05:24.334Z,13.7
2017-05-13T06:06:42.994Z,13.7
2017-05-13T06:08:01.727Z,13.6
2017-05-13T06:09:20.426Z,13.5
2017-05-13T06:10:39.109Z,13.5
2017-05-13T06:11:57.764Z,13.5
2017-05-13T06:13:16.451Z,13.6
2017-05-13T06:14:35.103Z,13.7
2017-05-13T06:15:53.759Z,13.9
2017-05-13T06:17:12.419Z,14.1
2017-05-13T06:18:31.119Z,14.3
2017-05-13T06:19:49.774Z,14.5
2017-05-13T06:21:08.441Z,14.6
2017-05-13T06:22:27.087Z,14.7
2017-05-13T06:23:45.736Z,14.8
2017-05-13T06:25:04.383Z,14.8
2017-05-13T06:26:23.056Z,14.9
2017-05-13T06:27:41.730Z,14.9
2017-05-13T06:29:00.381Z,15
2017-05-13T06:30:19.033Z,15
2017-05-13T06:31:37.732Z,15
2017-05-13T06:32:56.380Z,15.1
2017-05-13T06:34:15.068Z,15.1
2017-05-13T06:35:33.734Z,15.1
2017-05-13T06:36:52.376Z,15.2
2017-05-13T06:38:11.020Z,15.2
2017-05-13T06:39:29.680Z,15.3
2017-05-13T06:40:48.354Z,15.4
2017-05-13T06:42:07.043Z,15.4
2017-05-13T06:43:25.692Z,15.5
2017-05-13T06:44:44.338Z,15.6
2017-05-13T06:46:03.021Z,15.6
2017-05-13T06:47:21.680Z,15.7
2017-05-13T06:48:40.364Z,15.7
2017-05-13T06:49:59.031Z,15.7
2017-05-13T06:51:17.691Z,15.8
2017-05-13T06:52:36.347Z,15.8
2017-05-13T06:53:55.046Z,15.9
2017-05-13T06:55:13.731Z,15.9
2017-05-13T06:56:32.413Z,15.9
2017-05-13T06:57:51.103Z,16
2017-05-13T06:59:09.754Z,16.1
2017-05-13T07:00:28.457Z,16.2
2017-05-13T07:01:47.110Z,16.3
2017-05-13T07:03:05.793Z,16.3
2017-05-13T07:04:24.445Z,16.4
2017-05-13T07:05:43.126Z,16.5
2017-05-13T07:07:01.819Z,16.6
2017-05-13T07:08:20.471Z,16.6
2017-05-13T07:09:39.120Z,16.7
2017-05-13T07:10:57.787Z,16.7
2017-05-13T07:12:16.461Z,16.8
2017-05-13T07:13:35.105Z,16.8
2017-05-13T07:14:53.750Z,16.9
2017-05-13T07:16:12.402Z,17
2017-05-13T07:17:31.048Z,17.1
2017-05-13T07:18:49.735Z,17.1
2017-05-13T07:20:08.389Z,17.1
2017-05-13T07:21:27.035Z,17.2
2017-05-13T07:22:45.692Z,17.2
2017-05-13T07:24:04.390Z,17.3
2017-05-13T07:25:23.064Z,17.3
2017-05-13T07:26:41.718Z,17.3
2017-05-13T07:28:00.362Z,17.3
2017-05-13T07:29:19.021Z,17.3
2017-05-13T07:30:37.663Z,17.4
2017-05-13T07:31:56.375Z,17.4
2017-05-13T07:33:15.022Z,17.5
2017-05-13T07:34:33.701Z,17.5
2017-05-13T07:35:52.353Z,17.7
2017-05-13T07:37:11.003Z,17.8
2017-05-13T07:38:29.690Z,17.9
2017-05-13T07:39:48.387Z,18
2017-05-13T07:41:07.047Z,18.1
2017-05-13T07:42:25.742Z,18.3
2017-05-13T07:43:44.408Z,18.5
2017-05-13T07:45:03.105Z,18.9
2017-05-13T07:46:21.808Z,19.2
2017-05-13T07:47:40.456Z,19.5
2017-05-13T07:48:59.105Z,19.9
2017-05-13T07:50:17.791Z,20.2
2017-05-13T07:51:36.489Z,20.4
2017-05-13T07:52:55.144Z,20.7
2017-05-13T07:54:13.792Z,20.8
2017-05-13T07:55:32.440Z,20.8
2017-05-13T07:56:51.091Z,20.8
2017-05-13T07:58:09.742Z,20.7
2017-05-13T07:59:28.417Z,20.5
2017-05-13T08:00:47.064Z,20.3
2017-05-13T08:02:05.710Z,20.1
2017-05-13T08:03:24.364Z,19.7
2017-05-13T08:04:43.046Z,19.4
2017-05-13T08:06:01.727Z,19.1
2017-05-13T08:07:20.377Z,18.9
2017-05-13T08:08:39.025Z,18.7
2017-05-13T08:09:57.686Z,18.5
2017-05-13T08:11:16.348Z,18.4
2017-05-13T08:12:35.035Z,18.4
2017-05-13T08:13:53.691Z,18.5
2017-05-13T08:15:12.341Z,18.5
2017-05-13T08:16:30.988Z,18.6
2017-05-13T08:17:49.641Z,18.6
2017-05-13T08:19:08.298Z,18.6
2017-05-13T08:20:26.950Z,18.7
2017-05-13T08:21:45.629Z,18.7
2017-05-13T08:23:04.286Z,18.5
2017-05-13T08:24:22.956Z,18.4
2017-05-13T08:25:41.644Z,18.2
2017-05-13T08:27:00.325Z,18
2017-05-13T08:28:19.036Z,17.9
2017-05-13T08:29:37.716Z,18
2017-05-13T08:30:56.359Z,18.2
2017-05-13T08:32:15.064Z,18.4
2017-05-13T08:33:33.711Z,18.6
2017-05-13T08:34:52.361Z,18.7
2017-05-13T08:36:11.068Z,18.8
2017-05-13T08:37:29.727Z,18.9
2017-05-13T08:38:48.375Z,18.9
2017-05-13T08:40:07.026Z,19
2017-05-13T08:41:25.679Z,19.1
2017-05-13T08:42:44.332Z,19.1
2017-05-13T08:44:02.995Z,19.1
2017-05-13T08:45:21.649Z,19.1
2017-05-13T08:46:40.323Z,19
2017-05-13T08:47:58.989Z,18.9
2017-05-13T08:49:17.671Z,18.8
2017-05-13T08:50:36.327Z,18.7
2017-05-13T08:51:54.979Z,18.6
2017-05-13T08:53:13.697Z,19
2017-05-13T08:54:32.350Z,19.5
2017-05-13T08:55:51.028Z,20
2017-05-13T08:57:09.681Z,20.5
2017-05-13T08:58:28.373Z,21
2017-05-13T08:59:47.022Z,21.5
2017-05-13T09:01:05.669Z,22.1
2017-05-13T09:02:24.317Z,22.6
2017-05-13T09:03:42.964Z,22.9
2017-05-13T09:05:01.631Z,23
2017-05-13T09:06:20.310Z,22.9
2017-05-13T09:07:38.962Z,22.5
2017-05-13T09:08:57.641Z,22.1
2017-05-13T09:10:16.295Z,21.5
2017-05-13T09:11:34.950Z,21.1
2017-05-13T09:12:53.647Z,20.6
2017-05-13T09:14:12.365Z,20.3
2017-05-13T09:15:31.025Z,20.1
2017-05-13T09:16:49.723Z,19.9
2017-05-13T09:18:08.373Z,19.8
2017-05-13T09:19:27.063Z,19.7
2017-05-13T09:20:45.713Z,19.8
2017-05-13T09:22:04.405Z,20
2017-05-13T09:23:23.094Z,20.2
2017-05-13T09:24:41.760Z,20.3
2017-05-13T09:26:00.418Z,20.2
2017-05-13T09:27:19.073Z,19.7
2017-05-13T09:28:37.729Z,19.2
2017-05-13T09:29:56.382Z,18.6
2017-05-13T09:31:15.025Z,17.9
2017-05-13T09:32:33.678Z,17.2
2017-05-13T09:33:52.345Z,16.7
2017-05-13T09:35:11.046Z,16.4
2017-05-13T09:36:29.701Z,16.2
2017-05-13T09:37:48.402Z,16.1
2017-05-13T09:39:07.055Z,16.2
2017-05-13T09:40:25.758Z,16.2
2017-05-13T09:41:44.469Z,16.3
2017-05-13T09:43:03.117Z,16.5
2017-05-13T09:44:21.796Z,16.7
2017-05-13T09:45:40.504Z,17
2017-05-13T09:46:59.173Z,17.2
2017-05-13T09:48:17.887Z,17.6
2017-05-13T09:49:36.531Z,18.1
2017-05-13T09:50:55.196Z,18.6
2017-05-13T09:52:13.844Z,19
2017-05-13T09:53:32.520Z,19.2
2017-05-13T09:54:51.174Z,19.4
2017-05-13T09:56:09.858Z,19.3
2017-05-13T09:57:28.511Z,19.3
2017-05-13T09:58:47.230Z,19.1
2017-05-13T10:00:05.902Z,19.1
2017-05-13T10:01:24.545Z,19.1
2017-05-13T10:02:43.232Z,19.1
2017-05-13T10:04:01.879Z,19.1
2017-05-13T10:05:20.528Z,19.2
2017-05-13T10:06:39.193Z,19.3
2017-05-13T10:07:57.851Z,19.4
2017-05-13T10:09:16.554Z,19.5
2017-05-13T10:10:35.214Z,19.6
2017-05-13T10:11:53.884Z,19.6
2017-05-13T10:13:12.548Z,19.8
2017-05-13T10:14:31.193Z,20.1
2017-05-13T10:15:49.845Z,20.6
2017-05-13T10:17:08.492Z,21.2
2017-05-13T10:18:27.169Z,21.5
2017-05-13T10:19:45.819Z,21.9
2017-05-13T10:21:04.472Z,22
2017-05-13T10:22:23.155Z,22.1
2017-05-13T10:23:41.809Z,22.4
2017-05-13T10:25:00.468Z,22.6
2017-05-13T10:26:19.118Z,22.9
2017-05-13T10:27:37.858Z,22.7
2017-05-13T10:28:56.549Z,22
2017-05-13T10:30:15.204Z,21.4
2017-05-13T10:31:33.851Z,21.1
2017-05-13T10:32:52.505Z,20.8
2017-05-13T10:34:11.159Z,20.8
2017-05-13T10:35:29.864Z,20.7
2017-05-13T10:36:48.561Z,20.8
2017-05-13T10:38:07.257Z,21
2017-05-13T10:39:25.915Z,21.4
2017-05-13T10:40:44.568Z,21.8
2017-05-13T10:42:03.268Z,22
2017-05-13T10:43:21.941Z,22.4
2017-05-13T10:44:40.632Z,22.7
2017-05-13T10:45:59.331Z,22.8
2017-05-13T10:47:17.989Z,22.5
2017-05-13T10:48:36.685Z,22
2017-05-13T10:49:55.334Z,21.7
2017-05-13T10:51:14.013Z,21.5
2017-05-13T10:52:32.672Z,21.1
2017-05-13T10:53:51.320Z,20.8
2017-05-13T10:55:10.018Z,20.4
2017-05-13T10:56:28.688Z,20.1
2017-05-13T10:57:47.368Z,19.8
2017-05-13T10:59:06.077Z,19.7
2017-05-13T11:00:24.731Z,19.5
2017-05-13T11:01:43.439Z,19.5
2017-05-13T11:03:02.113Z,19.5
2017-05-13T11:04:20.771Z,19.5
2017-05-13T11:05:39.427Z,19.6
2017-05-13T11:06:58.091Z,19.6
2017-05-13T11:08:16.734Z,19.6
2017-05-13T11:09:35.454Z,19.6
2017-05-13T11:10:54.111Z,19.6
2017-05-13T11:12:12.757Z,19.6
2017-05-13T11:13:31.401Z,19.7
2017-05-13T11:14:50.070Z,19.8
2017-05-13T11:16:08.722Z,19.9
2017-05-13T11:17:27.372Z,19.8
2017-05-13T11:18:46.023Z,19.8
2017-05-13T11:20:04.709Z,19.7
2017-05-13T11:21:23.363Z,19.6
2017-05-13T11:22:42.042Z,19.4
2017-05-13T11:24:00.690Z,19.3
2017-05-13T11:25:19.386Z,19.2
2017-05-13T11:26:38.041Z,19
2017-05-13T11:27:56.683Z,18.8
2017-05-13T11:29:15.392Z,18.7
2017-05-13T11:30:34.062Z,18.6
2017-05-13T11:31:52.718Z,18.6
2017-05-13T11:33:11.402Z,18.7
2017-05-13T11:34:30.100Z,18.6
2017-05-13T11:35:48.755Z,18.5
2017-05-13T11:37:07.400Z,18.4
2017-05-13T11:38:26.065Z,18.3
2017-05-13T11:39:44.714Z,18.1
2017-05-13T11:41:03.367Z,17.9
2017-05-13T11:42:22.050Z,17.7
2017-05-13T11:43:40.701Z,17.7
2017-05-13T11:44:59.351Z,17.5
2017-05-13T11:46:18.016Z,17.4
2017-05-13T11:47:36.680Z,17.2
2017-05-13T11:48:55.356Z,16.9
2017-05-13T11:50:14.005Z,16.7
2017-05-13T11:51:32.662Z,16.5
2017-05-13T11:52:51.364Z,16.4
2017-05-13T11:54:10.007Z,16.2
2017-05-13T11:55:28.693Z,16
2017-05-13T11:56:47.345Z,15.9
2017-05-13T11:58:06.042Z,15.6
2017-05-13T11:59:24.692Z,14.4
2017-05-13T12:00:43.347Z,13.9
2017-05-13T12:02:02.018Z,13.8
2017-05-13T12:03:20.666Z,13.7
2017-05-13T12:04:39.366Z,13.9
2017-05-13T12:05:58.018Z,14.1
2017-05-13T12:07:16.699Z,14.2
2017-05-13T12:08:35.358Z,14.4
2017-05-13T12:09:54.008Z,14.5
2017-05-13T12:11:12.663Z,14.6
2017-05-13T12:12:31.310Z,14.7
2017-05-13T12:13:49.957Z,14.8
2017-05-13T12:15:08.608Z,14.9
2017-05-13T12:16:27.265Z,14.9
2017-05-13T12:17:45.965Z,14.9
2017-05-13T12:19:04.620Z,14.9
2017-05-13T12:20:23.274Z,14.9
2017-05-13T12:21:41.937Z,15
2017-05-13T12:23:00.629Z,15
2017-05-13T12:24:19.312Z,15
2017-05-13T12:25:37.997Z,15
2017-05-13T12:26:56.681Z,15.1
2017-05-13T12:28:15.331Z,15.1
2017-05-13T12:29:33.993Z,15.1
2017-05-13T12:30:52.637Z,15.2
2017-05-13T12:32:11.293Z,15.3
2017-05-13T12:33:29.991Z,15.3
2017-05-13T12:34:48.649Z,15.3
2017-05-13T12:36:07.303Z,15.2
2017-05-13T12:37:25.959Z,15.2
2017-05-13T12:38:44.625Z,15.2
2017-05-13T12:40:03.275Z,15.2
2017-05-13T12:41:21.924Z,15.1
2017-05-13T12:42:40.602Z,15.1
2017-05-13T12:43:59.295Z,15
2017-05-13T12:45:18.011Z,15
2017-05-13T12:46:36.729Z,14.9
2017-05-13T12:47:55.406Z,14.8
2017-05-13T12:49:14.114Z,14.8
2017-05-13T12:50:32.761Z,14.8
2017-05-13T12:51:51.470Z,14.7
2017-05-13T12:53:10.124Z,14.6
2017-05-13T12:54:28.809Z,14.5
2017-05-13T12:55:47.514Z,14.5
2017-05-13T12:57:06.169Z,14.5
2017-05-13T12:58:24.873Z,14.6
2017-05-13T12:59:43.526Z,14.6
2017-05-13T13:01:02.182Z,14.6
2017-05-13T13:02:20.832Z,14.5
2017-05-13T13:03:39.476Z,14.4
2017-05-13T13:04:58.135Z,14.3
2017-05-13T13:06:16.791Z,14.2
2017-05-13T13:07:35.497Z,14.1
2017-05-13T13:08:54.171Z,14.1
2017-05-13T13:10:12.825Z,13.9
2017-05-13T13:11:31.503Z,13.9
2017-05-13T13:12:50.150Z,13.9
2017-05-13T13:14:08.850Z,13.7
2017-05-13T13:15:27.501Z,13.7
2017-05-13T13:16:46.150Z,13.6
2017-05-13T13:18:04.855Z,13.5
2017-05-13T13:19:23.505Z,13.5
2017-05-13T13:20:42.227Z,13.4
2017-05-13T13:22:00.881Z,13.3
2017-05-13T13:23:19.534Z,13.4
2017-05-13T13:24:38.181Z,13.3
2017-05-13T13:25:56.861Z,13.2
2017-05-13T13:27:15.514Z,13.3
2017-05-13T13:28:34.204Z,13.4
2017-05-13T13:29:52.856Z,13.4
2017-05-13T13:31:11.538Z,13.4
2017-05-13T13:32:30.255Z,13.6
2017-05-13T13:33:48.934Z,13.7
2017-05-13T13:35:07.608Z,13.8
2017-05-13T13:36:26.308Z,14
2017-05-13T13:37:44.988Z,14.1
2017-05-13T13:39:03.640Z,14.3
2017-05-13T13:40:22.287Z,14.8
2017-05-13T13:41:40.941Z,15.4
2017-05-13T13:42:59.641Z,16.3
2017-05-13T13:44:18.384Z,18
2017-05-13T13:45:37.030Z,20.9
2017-05-13T13:46:55.696Z,25.1
2017-05-13T13:48:14.347Z,28.9
2017-05-13T13:49:33.045Z,32.2
2017-05-13T13:50:51.744Z,34.1
2017-05-13T13:52:10.426Z,34.4
2017-05-13T13:53:29.075Z,34.5
2017-05-13T13:54:47.734Z,34.5
2017-05-13T13:56:06.432Z,34.6
2017-05-13T13:57:25.076Z,34.5
2017-05-13T13:58:43.726Z,34.2
2017-05-13T14:00:02.377Z,34.1
2017-05-13T14:01:21.025Z,34.4
2017-05-13T14:02:39.737Z,34.6
2017-05-13T14:03:58.442Z,34.8
2017-05-13T14:05:17.097Z,35.1
2017-05-13T14:06:35.751Z,35.2
2017-05-13T14:07:54.411Z,35.2
2017-05-13T14:09:13.104Z,35
2017-05-13T14:10:31.761Z,34.8
2017-05-13T14:11:50.465Z,34.6
2017-05-13T14:13:09.119Z,34.5
2017-05-13T14:14:27.768Z,34.4
2017-05-13T14:15:46.445Z,34.4
2017-05-13T14:17:05.094Z,34.5
2017-05-13T14:18:23.751Z,34.7
2017-05-13T14:19:42.410Z,34.8
2017-05-13T14:21:01.083Z,35
2017-05-13T14:22:19.758Z,35
2017-05-13T14:23:38.491Z,35
2017-05-13T14:24:57.143Z,34.6
2017-05-13T14:26:15.830Z,33.6
2017-05-13T14:27:34.500Z,33.8
2017-05-13T14:28:53.156Z,34.7
2017-05-13T14:30:11.816Z,35.3
2017-05-13T14:31:30.471Z,35.2
2017-05-13T14:32:49.137Z,35.6
2017-05-13T14:34:07.819Z,35.9
2017-05-13T14:35:26.472Z,36.1
2017-05-13T14:36:45.123Z,35.8
2017-05-13T14:38:03.823Z,36.1
2017-05-13T14:39:22.537Z,35.7
2017-05-13T14:40:41.230Z,35
2017-05-13T14:41:59.879Z,34.5
2017-05-13T14:43:18.528Z,33.2
2017-05-13T14:44:37.178Z,33.9
2017-05-13T14:45:55.827Z,34.4
2017-05-13T14:47:14.533Z,34.6
2017-05-13T14:48:33.175Z,34.7
2017-05-13T14:49:51.822Z,34.6
2017-05-13T14:51:10.484Z,34.4
2017-05-13T14:52:29.132Z,33.5
2017-05-13T14:53:47.800Z,32.5
2017-05-13T14:55:06.491Z,31.9
2017-05-13T14:56:25.163Z,31.4
2017-05-13T14:57:43.846Z,31.1
2017-05-13T14:59:02.502Z,30.6
2017-05-13T15:00:21.225Z,29.9
2017-05-13T15:01:39.874Z,29.5
2017-05-13T15:02:58.551Z,29.3
2017-05-13T15:04:17.220Z,28.9
2017-05-13T15:05:35.936Z,28.4
2017-05-13T15:06:54.582Z,27.5
2017-05-13T15:08:13.259Z,26.4
2017-05-13T15:09:31.964Z,25.8
2017-05-13T15:10:50.662Z,25.6
2017-05-13T15:12:09.338Z,25.7
2017-05-13T15:13:28.019Z,25.5
2017-05-13T15:14:46.690Z,25.4
2017-05-13T15:16:05.340Z,25.4
2017-05-13T15:17:23.996Z,25.3
2017-05-13T15:18:42.696Z,25.7
2017-05-13T15:20:01.348Z,25.9
2017-05-13T15:21:20.001Z,25.9
2017-05-13T15:22:38.655Z,25.7
2017-05-13T15:23:57.360Z,25.8
2017-05-13T15:25:16.062Z,26
2017-05-13T15:26:34.726Z,26
2017-05-13T15:27:53.373Z,25.8
2017-05-13T15:29:12.028Z,25.5
2017-05-13T15:30:30.677Z,25.2
2017-05-13T15:31:49.403Z,24.8
2017-05-13T15:33:08.106Z,24.3
2017-05-13T15:34:26.787Z,24.2
2017-05-13T15:35:45.488Z,24.2
2017-05-13T15:37:04.136Z,24.1
2017-05-13T15:38:22.783Z,24.1
2017-05-13T15:39:41.468Z,23.9
2017-05-13T15:41:00.176Z,23.9
2017-05-13T15:42:18.859Z,23.8
2017-05-13T15:43:37.558Z,23.8
2017-05-13T15:44:56.254Z,23.8
2017-05-13T15:46:14.923Z,23.8
2017-05-13T15:47:33.580Z,23.8
2017-05-13T15:48:52.252Z,24
2017-05-13T15:50:10.939Z,24.3
2017-05-13T15:51:29.590Z,24.4
2017-05-13T15:52:48.247Z,24.5
2017-05-13T15:54:06.942Z,24.4
2017-05-13T15:55:25.592Z,24.3
2017-05-13T15:56:44.305Z,24.2
2017-05-13T15:58:02.956Z,24.1
2017-05-13T15:59:21.652Z,23.9
2017-05-13T16:00:40.298Z,23.8
2017-05-13T16:01:58.948Z,23.7
2017-05-13T16:03:17.606Z,23.6
2017-05-13T16:04:36.259Z,23.6
2017-05-13T16:05:54.949Z,23.5
2017-05-13T16:07:13.596Z,23.3
2017-05-13T16:08:32.249Z,23.4
2017-05-13T16:09:50.971Z,23.5
2017-05-13T16:11:09.641Z,23.8
2017-05-13T16:12:28.293Z,24
2017-05-13T16:13:46.964Z,24.1
2017-05-13T16:15:05.628Z,24.2
2017-05-13T16:16:24.330Z,24.2
2017-05-13T16:17:42.990Z,24
2017-05-13T16:19:01.649Z,24.6
2017-05-13T16:20:20.304Z,26.5
2017-05-13T16:21:38.959Z,26.5
2017-05-13T16:22:57.611Z,25.6
2017-05-13T16:24:16.273Z,25.1
2017-05-13T16:25:34.953Z,24.7
2017-05-13T16:26:53.615Z,24.5
2017-05-13T16:28:12.271Z,24.9
2017-05-13T16:29:30.951Z,26.9
2017-05-13T16:30:49.613Z,30.7
2017-05-13T16:32:08.288Z,32
2017-05-13T16:33:26.946Z,31.5
2017-05-13T16:34:45.625Z,31.8
2017-05-13T16:36:04.325Z,34
2017-05-13T16:37:22.987Z,34.1
2017-05-13T16:38:41.638Z,33.5
2017-05-13T16:40:00.307Z,34.4
2017-05-13T16:41:18.960Z,34.5
2017-05-13T16:42:37.609Z,34.5
2017-05-13T16:43:56.262Z,33.5
2017-05-13T16:45:14.933Z,30.7
2017-05-13T16:46:33.584Z,27.9
2017-05-13T16:47:52.233Z,25.9
2017-05-13T16:49:10.891Z,24.5
2017-05-13T16:50:29.545Z,23.6
2017-05-13T16:51:48.230Z,22.8
2017-05-13T16:53:06.883Z,22.3
2017-05-13T16:54:25.555Z,21.9
2017-05-13T16:55:44.204Z,21.6
2017-05-13T16:57:02.861Z,21.5
2017-05-13T16:58:21.566Z,21.3
2017-05-13T16:59:40.245Z,21.2
2017-05-13T17:00:58.980Z,21
2017-05-13T17:02:17.629Z,20.8
2017-05-13T17:03:36.285Z,20.6
2017-05-13T17:04:54.951Z,20.5
2017-05-13T17:06:13.603Z,20.3
2017-05-13T17:07:32.304Z,20.9
2017-05-13T17:08:50.959Z,22.5
2017-05-13T17:10:09.616Z,22.5
2017-05-13T17:11:28.269Z,22.9
2017-05-13T17:12:46.932Z,23
2017-05-13T17:14:05.613Z,22.4
2017-05-13T17:15:24.269Z,22
2017-05-13T17:16:42.935Z,21.5
2017-05-13T17:18:01.591Z,21
2017-05-13T17:19:20.251Z,20.8
2017-05-13T17:20:38.958Z,20.6
2017-05-13T17:21:57.606Z,20.5
2017-05-13T17:23:16.254Z,20.2
2017-05-13T17:24:34.904Z,19.9
2017-05-13T17:25:53.559Z,19.6
2017-05-13T17:27:12.211Z,19.5
2017-05-13T17:28:30.865Z,19.4
2017-05-13T17:29:49.515Z,19.1
2017-05-13T17:31:08.162Z,18.9
2017-05-13T17:32:26.882Z,18.9
2017-05-13T17:33:45.591Z,18.8
2017-05-13T17:35:04.287Z,18.7
2017-05-13T17:36:22.933Z,18.7
2017-05-13T17:37:41.595Z,18.5
2017-05-13T17:39:00.261Z,18.4
2017-05-13T17:40:18.919Z,18.4
2017-05-13T17:41:37.567Z,18.4
2017-05-13T17:42:56.216Z,18.4